^^
Station Historical Data
Daily Summary for June 7, 2017 Units:  English    Metric   Both
« Previous Day
Next Day »
Daily Weekly Monthly Yearly Custom
  High: Low: Average:
Temperature: 70.3 °F 48.1 °F 58 °F
Dew Point: 53.6 °F 45.9 °F 49.8 °F
Humidity: 93% 52% 76%
Wind Speed: 3.0mph 0.0mph 0.6mph
Wind Gust: 10.0mph - -
Wind- - West
Pressure: 30.04 in 29.95 in -
Precipitation: 0.00 in    
Historical Graphs
 
 
Tabular Data for June 7, 2017
Time Temperature Dew Point Pressure Wind Wind Speed Wind Gust Humidity Rainfall Rate (Hourly) Conditions
00:00 49.7 °F 46.9 °F 29.95 in Calm   1.0 mph 90% 0.00 in RA
00:15 49.5 °F 46.4 °F 29.95 in Calm   1.0 mph 89% 0.00 in BKN
00:30 49.3 °F 46.2 °F 29.95 in Calm   1.0 mph 89% 0.00 in BKN
00:45 49.3 °F 46.5 °F 29.95 in Calm   1.0 mph 90% 0.00 in BKN
01:00 49.3 °F 46.5 °F 29.95 in Calm   1.0 mph 90% 0.00 in BKN
02:15 49.0 °F 46.2 °F 29.95 in Calm   5.0 mph 90% 0.00 in BKN
02:30 48.9 °F 46.4 °F 29.95 in Calm   2.0 mph 91% 0.00 in BKN
02:45 49.1 °F 46.6 °F 29.95 in NNW 1.0 mph 2.0 mph 91% 0.00 in BKN
03:00 49.2 °F 46.7 °F 29.95 in Calm   3.0 mph 91% 0.00 in BKN
03:15 48.9 °F 46.4 °F 29.95 in Calm   1.0 mph 91% 0.00 in BKN
03:30 48.3 °F 46.1 °F 29.95 in Calm   1.0 mph 92% 0.00 in BKN
03:45 48.2 °F 46.0 °F 29.95 in Calm   1.0 mph 92% 0.00 in BKN
04:00 48.3 °F 46.1 °F 29.95 in Calm   1.0 mph 92% 0.00 in BKN
04:15 48.3 °F 46.1 °F 29.95 in Calm   2.0 mph 92% 0.00 in BKN
04:30 48.1 °F 45.9 °F 29.95 in Calm   1.0 mph 92% 0.00 in BKN
04:45 48.3 °F 46.4 °F 29.95 in Calm     93% 0.00 in BKN
05:00 48.4 °F 46.5 °F 29.95 in Calm   1.0 mph 93% 0.00 in BKN
05:15 48.6 °F 46.6 °F 29.95 in Calm   2.0 mph 93% 0.00 in BKN
05:30 48.9 °F 46.7 °F 29.95 in Calm   2.0 mph 92% 0.00 in BKN
05:45 49.1 °F 46.9 °F 29.96 in Calm   3.0 mph 92% 0.00 in BKN
06:00 49.3 °F 47.0 °F 29.96 in Calm   2.0 mph 92% 0.00 in BKN
06:15 49.5 °F 47.3 °F 29.97 in Calm   3.0 mph 92% 0.00 in BKN
06:30 49.8 °F 47.3 °F 29.97 in Calm   3.0 mph 91% 0.00 in BKN
06:45 50.1 °F 47.6 °F 29.98 in NW 1.0 mph 2.0 mph 91% 0.00 in BKN
07:00 50.4 °F 47.9 °F 29.98 in Calm   2.0 mph 91% 0.00 in BKN
07:15 50.7 °F 47.8 °F 29.99 in NW 1.0 mph 5.0 mph 90% 0.00 in BKN
07:30 51.1 °F 48.3 °F 29.99 in NW 1.0 mph 5.0 mph 90% 0.00 in BKN
07:45 51.6 °F 48.5 °F 29.99 in Calm   5.0 mph 89% 0.00 in BKN
08:00 52.3 °F 48.8 °F 30.00 in North 1.0 mph 5.0 mph 88% 0.00 in BKN
08:15 52.9 °F 49.1 °F 30.00 in NNW 1.0 mph 5.0 mph 87% 0.00 in BKN
08:30 54.2 °F 49.5 °F 30.01 in NW 3.0 mph 8.0 mph 84% 0.00 in BKN
08:45 54.7 °F 50.3 °F 30.01 in NNW 1.0 mph 7.0 mph 85% 0.00 in BKN
09:00 54.9 °F 49.9 °F 30.01 in North 3.0 mph 8.0 mph 83% 0.00 in BKN
09:15 56.3 °F 50.5 °F 30.01 in North 1.0 mph 8.0 mph 81% 0.00 in BKN
09:30 56.6 °F 50.5 °F 30.01 in NNW 2.0 mph 6.0 mph 80% 0.00 in BKN
09:45 56.8 °F 51.0 °F 30.01 in NW 3.0 mph 7.0 mph 81% 0.00 in BKN
10:00 57.3 °F 51.2 °F 30.01 in NNW 3.0 mph 6.0 mph 80% 0.00 in BKN
10:15 57.4 °F 51.3 °F 30.01 in Calm   10.0 mph 80% 0.00 in BKN
10:30 57.3 °F 50.8 °F 30.01 in Calm   7.0 mph 79% 0.00 in BKN
10:45 58.0 °F 51.1 °F 30.01 in NE 1.0 mph 5.0 mph 78% 0.00 in BKN
11:00 59.7 °F 51.4 °F 30.01 in NW 1.0 mph 7.0 mph 74% 0.00 in BKN
11:15 60.0 °F 50.9 °F 30.01 in NNW 1.0 mph 6.0 mph 72% 0.00 in BKN
11:30 61.3 °F 51.1 °F 30.01 in Calm   6.0 mph 69% 0.00 in BKN
11:45 61.6 °F 50.1 °F 30.01 in NNW 3.0 mph 10.0 mph 66% 0.00 in BKN
12:00 62.6 °F 50.2 °F 30.00 in NW 2.0 mph 8.0 mph 64% 0.00 in BKN
12:15 63.4 °F 50.1 °F 30.00 in NW 2.0 mph 7.0 mph 62% 0.00 in BKN
12:30 62.8 °F 50.5 °F 30.00 in NNW 3.0 mph 7.0 mph 64% 0.00 in BKN
12:45 63.4 °F 50.1 °F 30.00 in NNW 2.0 mph 5.0 mph 62% 0.00 in BKN
13:00 63.2 °F 50.8 °F 30.00 in Calm   5.0 mph 64% 0.00 in BKN
13:15 62.4 °F 50.5 °F 30.00 in NNE 2.0 mph 6.0 mph 65% 0.00 in BKN
13:30 63.0 °F 51.5 °F 30.00 in Calm   5.0 mph 66% 0.00 in BKN
13:45 64.2 °F 50.0 °F 30.00 in North 3.0 mph 7.0 mph 60% 0.00 in BKN
14:00 65.1 °F 50.9 °F 30.00 in NW 1.0 mph 5.0 mph 60% 0.00 in BKN
14:15 64.4 °F 51.1 °F 30.00 in NW 1.0 mph 5.0 mph 62% 0.00 in BKN
14:30 63.7 °F 51.3 °F 30.00 in Calm   4.0 mph 64% 0.00 in BKN
14:45 65.6 °F 52.2 °F 30.00 in Calm   5.0 mph 62% 0.00 in BKN
15:00 65.0 °F 50.8 °F 30.00 in West 1.0 mph 5.0 mph 60% 0.00 in BKN
15:15 65.2 °F 50.5 °F 30.00 in SW 1.0 mph 3.0 mph 59% 0.00 in BKN
15:30 65.6 °F 50.4 °F 30.00 in SSW 1.0 mph 3.0 mph 58% 0.00 in BKN
15:45 65.6 °F 50.0 °F 30.00 in Calm   3.0 mph 57% 0.00 in BKN
16:00 65.8 °F 51.5 °F 30.00 in Calm   2.0 mph 60% 0.00 in BKN
16:15 64.8 °F 51.5 °F 30.00 in NW 2.0 mph 6.0 mph 62% 0.00 in BKN
16:30 65.3 °F 53.2 °F 30.00 in Calm   5.0 mph 65% 0.00 in BKN
16:45 66.7 °F 53.3 °F 30.01 in Calm   2.0 mph 62% 0.00 in BKN
17:00 66.9 °F 52.1 °F 30.01 in Calm   5.0 mph 59% 0.00 in BKN
17:15 66.6 °F 51.8 °F 30.01 in Calm   4.0 mph 59% 0.00 in BKN
17:30 67.9 °F 51.6 °F 30.01 in Calm   6.0 mph 56% 0.00 in BKN
17:45 68.6 °F 50.7 °F 30.01 in WSW 1.0 mph 4.0 mph 53% 0.00 in BKN
18:00 69.6 °F 51.2 °F 30.01 in WSW 1.0 mph 4.0 mph 52% 0.00 in BKN
18:15 68.9 °F 51.1 °F 30.01 in SW 2.0 mph 5.0 mph 53% 0.00 in SCT
18:30 69.6 °F 51.2 °F 30.01 in South 1.0 mph 4.0 mph 52% 0.00 in SCT
18:45 70.3 °F 51.8 °F 30.01 in Calm   2.0 mph 52% 0.00 in SCT
19:00 69.0 °F 51.2 °F 30.01 in Calm   3.0 mph 53% 0.00 in SCT
19:15 69.7 °F 51.8 °F 30.01 in Calm   2.0 mph 53% 0.00 in FEW
19:30 69.5 °F 52.2 °F 30.01 in Calm   2.0 mph 54% 0.00 in FEW
19:45 69.8 °F 53.4 °F 30.01 in Calm   1.0 mph 56% 0.00 in FEW
20:00 68.0 °F 53.6 °F 30.01 in Calm     60% 0.00 in FEW
20:15 64.8 °F 53.6 °F 30.01 in Calm     67% 0.00 in CLR
20:30 62.0 °F 52.8 °F 30.02 in Calm     72% 0.00 in CLR
20:45 59.8 °F 52.9 °F 30.02 in Calm     78% 0.00 in CLR
21:00 58.3 °F 52.5 °F 30.02 in Calm     81% 0.00 in CLR
21:15 57.7 °F 52.3 °F 30.03 in Calm     82% 0.00 in CLR
21:30 57.4 °F 51.3 °F 30.03 in Calm     80% 0.00 in CLR
21:45 57.4 °F 51.3 °F 30.03 in Calm     80% 0.00 in CLR
22:00 56.9 °F 51.1 °F 30.04 in Calm     81% 0.00 in CLR
22:15 56.1 °F 50.7 °F 30.03 in Calm     82% 0.00 in CLR
22:45 55.8 °F 51.0 °F 30.04 in Calm     84% 0.00 in CLR
23:00 55.9 °F 51.1 °F 30.04 in Calm     84% 0.00 in CLR
23:15 55.7 °F 51.0 °F 30.03 in Calm     84% 0.00 in CLR
23:30 54.5 °F 50.1 °F 30.04 in Calm     85% 0.00 in CLR
23:45 53.7 °F 49.9 °F 30.04 in Calm     87% 0.00 in CLR
TarryTown NY Weather
Compliments of Weather Underground - 1.5 mb